Time;durP1;ratioP1;P1;durP2;ratioP2;P2;SDS_P1;SDS_P2;PMS_P1;PMS_P2;Temp;Humidity;BMP_temperature;BMP_pressure;BME280_temperature;BME280_humidity;BME280_pressure;Samples;Min_cycle;Max_cycle;Signal;HPM_P1;HPM_P2
2022/08/14 00:01:27;;;;;;;;;;;;;;;26.87;74.17;97592.41;4994341;28;19968;-92
2022/08/14 00:03:55;;;;;;;;;;;;;;;26.88;74.30;97595.94;4997072;28;19929;-91
2022/08/14 00:06:21;;;;;;;;;;;;;;;26.87;74.41;97597.88;4994319;28;19983;-90
2022/08/14 00:08:48;;;;;;;;;;;;;;;26.86;74.19;97592.81;4998919;28;19972;-92
2022/08/14 00:11:14;;;;;;;;;;;;;;;26.83;74.61;97590.81;4998165;28;19925;-92
2022/08/14 00:13:42;;;;;;;;;;;;;;;26.78;75.01;97589.16;5001470;28;19969;-91
2022/08/14 00:16:13;;;;;;;;;;;;;;;26.79;75.41;97594.28;4996920;28;20463;-93
2022/08/14 00:18:39;;;;;;;;;;;;;;;26.77;75.60;97585.63;4990120;28;19929;-94
2022/08/14 00:21:08;;;;;;;;;;;;;;;26.78;75.39;97578.19;5003275;28;19929;-92
2022/08/14 00:23:34;;;;;;;;;;;;;;;26.67;76.32;97589.06;5004479;28;19933;-90
2022/08/14 00:26:00;;;;;;;;;;;;;;;26.63;76.91;97580.03;4995216;28;19929;-93
2022/08/14 00:28:27;;;;;;;;;;;;;;;26.65;77.03;97577.69;5000191;28;19934;-94
2022/08/14 00:30:56;;;;;;;;;;;;;;;26.70;76.30;97571.88;4999103;28;19926;-90
2022/08/14 00:33:23;;;;;;;;;;;;;;;26.65;76.93;97564.00;5008186;28;19926;-90
2022/08/14 00:35:49;;;;;;;;;;;;;;;26.67;76.33;97564.41;4999725;28;19930;-90
2022/08/14 00:38:17;;;;;;;;;;;;;;;26.65;76.95;97569.47;4999288;28;19933;-91
2022/08/14 00:40:44;;;;;;;;;;;;;;;26.63;77.04;97566.31;5000438;28;19961;-90
2022/08/14 00:43:11;;;;;;;;;;;;;;;26.65;76.99;97571.41;4997614;28;20390;-91
2022/08/14 00:45:37;;;;;;;;;;;;;;;26.61;77.40;97574.13;4998429;28;19932;-91
2022/08/14 00:48:05;;;;;;;;;;;;;;;26.60;77.30;97569.81;4999383;28;19956;-92
2022/08/14 00:50:33;;;;;;;;;;;;;;;26.57;77.80;97573.31;4995963;28;19925;-90
2022/08/14 00:53:00;;;;;;;;;;;;;;;26.46;78.76;97569.66;5005352;28;19940;-90
2022/08/14 00:55:28;;;;;;;;;;;;;;;26.47;78.89;97556.75;4999575;28;19972;-91
2022/08/14 01:00:35;;;;;;;;;;;;;;;26.30;80.21;97560.88;5003653;28;19929;-92
2022/08/14 01:03:03;;;;;;;;;;;;;;;26.42;78.90;97566.09;5016837;28;20481;-90
2022/08/14 01:05:29;;;;;;;;;;;;;;;26.39;79.51;97555.13;5004124;28;19969;-90
2022/08/14 01:07:58;;;;;;;;;;;;;;;26.40;79.54;97557.47;5008496;28;20685;-91
2022/08/14 01:10:49;;;;;;;;;;;;;;;26.34;79.82;97560.94;5008254;28;19934;-91
2022/08/14 01:13:15;;;;;;;;;;;;;;;26.34;79.63;97558.97;5008406;28;19929;-90
2022/08/14 01:15:42;;;;;;;;;;;;;;;26.39;79.35;97555.13;5005055;28;19930;-90
2022/08/14 01:21:07;;;;;;;;;;;;;;;26.33;79.13;97553.88;5011231;28;19926;-90
2022/08/14 01:23:37;;;;;;;;;;;;;;;26.36;77.98;97553.13;5010622;28;19960;-91
2022/08/14 01:26:03;;;;;;;;;;;;;;;26.25;78.63;97551.03;5007724;28;19926;-92
2022/08/14 01:28:32;;;;;;;;;;;;;;;26.19;78.99;97551.75;5011125;28;20017;-92
2022/08/14 01:30:59;;;;;;;;;;;;;;;26.21;78.70;97555.69;5010340;28;19941;-91
2022/08/14 01:33:27;;;;;;;;;;;;;;;26.21;78.46;97558.41;4996465;28;20705;-91
2022/08/14 01:35:57;;;;;;;;;;;;;;;26.14;78.51;97552.84;5032179;28;19932;-91
2022/08/14 01:38:25;;;;;;;;;;;;;;;26.15;78.58;97550.91;5012390;28;19929;-92
2022/08/14 01:40:53;;;;;;;;;;;;;;;26.17;78.31;97554.09;5008165;28;20651;-92
2022/08/14 01:43:19;;;;;;;;;;;;;;;26.19;77.95;97551.75;4994882;28;19929;-91
2022/08/14 01:45:51;;;;;;;;;;;;;;;26.17;78.08;97556.81;5001524;28;20020;-92
2022/08/14 01:48:18;;;;;;;;;;;;;;;26.13;78.44;97545.00;5004256;28;19926;-91
2022/08/14 01:50:44;;;;;;;;;;;;;;;26.17;77.84;97545.88;5008335;28;19968;-89
2022/08/14 01:53:11;;;;;;;;;;;;;;;26.11;78.61;97531.69;5009229;28;19929;-91
2022/08/14 01:55:38;;;;;;;;;;;;;;;26.09;78.58;97535.97;5016761;28;20012;-92
2022/08/14 01:58:10;;;;;;;;;;;;;;;26.12;78.39;97527.03;5018956;28;19976;-89
2022/08/14 02:00:37;;;;;;;;;;;;;;;26.04;79.08;97526.13;5006976;28;19983;-90
2022/08/14 02:03:04;;;;;;;;;;;;;;;26.01;79.76;97542.50;5000967;28;19980;-92
2022/08/14 02:05:31;;;;;;;;;;;;;;;26.00;80.31;97532.72;5008955;28;19973;-89
2022/08/14 02:07:57;;;;;;;;;;;;;;;25.98;80.35;97532.31;4993716;28;19926;-92
2022/08/14 02:10:27;;;;;;;;;;;;;;;25.93;80.89;97519.75;5002300;28;19926;-90
2022/08/14 02:12:54;;;;;;;;;;;;;;;25.91;81.09;97524.00;5003322;28;20019;-90
2022/08/14 02:15:22;;;;;;;;;;;;;;;25.77;81.31;97521.91;4991210;28;20377;-91
2022/08/14 02:17:48;;;;;;;;;;;;;;;25.81;81.81;97511.00;4998585;28;20319;-91
2022/08/14 02:20:16;;;;;;;;;;;;;;;25.85;81.32;97517.28;5004471;28;19925;-90
2022/08/14 02:22:44;;;;;;;;;;;;;;;25.85;81.70;97512.63;4999973;28;19929;-91
2022/08/14 02:25:10;;;;;;;;;;;;;;;25.88;82.10;97517.34;4988483;28;19933;-90
2022/08/14 02:27:41;;;;;;;;;;;;;;;25.83;82.29;97512.22;4994047;28;20565;-91
2022/08/14 02:30:08;;;;;;;;;;;;;;;25.81;82.46;97513.75;4990098;28;19930;-91
2022/08/14 02:32:36;;;;;;;;;;;;;;;25.84;82.40;97510.25;5012796;28;19976;-90
2022/08/14 02:35:06;;;;;;;;;;;;;;;25.83;82.67;97511.41;4992714;28;20045;-90
2022/08/14 02:37:32;;;;;;;;;;;;;;;25.85;82.28;97503.63;5000168;28;19925;-92
2022/08/14 02:39:58;;;;;;;;;;;;;;;25.80;82.22;97504.75;5001125;28;19929;-91
2022/08/14 02:42:25;;;;;;;;;;;;;;;25.81;82.27;97511.00;4998202;28;19981;-90
2022/08/14 02:44:51;;;;;;;;;;;;;;;25.77;82.61;97509.00;4994960;28;19948;-92
2022/08/14 02:47:19;;;;;;;;;;;;;;;25.81;82.30;97497.34;4997828;28;20475;-92
2022/08/14 02:49:47;;;;;;;;;;;;;;;25.62;83.45;97510.00;5017200;28;19925;-89
2022/08/14 02:52:13;;;;;;;;;;;;;;;25.40;84.19;97505.34;4986266;28;20397;-90
2022/08/14 02:54:40;;;;;;;;;;;;;;;25.18;86.43;97511.66;5001823;28;20462;-92
2022/08/14 02:57:06;;;;;;;;;;;;;;;24.96;88.24;97513.28;5018689;28;19951;-94
2022/08/14 02:59:33;;;;;;;;;;;;;;;25.18;84.58;97503.47;4990591;28;20041;-91
2022/08/14 03:02:00;;;;;;;;;;;;;;;25.18;84.55;97504.25;5003534;28;19975;-91
2022/08/14 03:04:28;;;;;;;;;;;;;;;25.29;85.85;97506.34;4992598;28;20024;-92
2022/08/14 03:06:56;;;;;;;;;;;;;;;25.41;85.25;97506.91;4998905;28;20436;-91
2022/08/14 03:09:22;;;;;;;;;;;;;;;25.51;83.66;97500.84;5001424;28;19936;-90
2022/08/14 03:11:49;;;;;;;;;;;;;;;25.54;83.78;97502.84;5001856;28;19929;-90
2022/08/14 03:14:16;;;;;;;;;;;;;;;25.52;83.46;97491.50;5001975;28;19929;-93
2022/08/14 03:16:44;;;;;;;;;;;;;;;25.40;84.72;97497.16;4999221;28;19925;-91
2022/08/14 03:19:10;;;;;;;;;;;;;;;25.28;85.42;97494.66;4995310;28;19940;-88
2022/08/14 03:21:38;;;;;;;;;;;;;;;25.36;83.53;97490.84;4988552;28;19940;-91
2022/08/14 03:24:10;;;;;;;;;;;;;;;25.42;84.69;97486.63;4995670;28;20478;-94
2022/08/14 03:26:38;;;;;;;;;;;;;;;25.44;84.77;97481.56;5000790;28;19992;-90
2022/08/14 03:29:05;;;;;;;;;;;;;;;25.49;84.48;97475.81;4998889;28;19941;-90
2022/08/14 03:31:32;;;;;;;;;;;;;;;25.51;84.28;97476.22;4997095;28;19956;-89
2022/08/14 03:33:58;;;;;;;;;;;;;;;25.48;84.54;97466.00;4997644;28;19929;-91
2022/08/14 03:36:25;;;;;;;;;;;;;;;25.50;84.09;97477.38;5002074;28;20483;-91
2022/08/14 03:38:53;;;;;;;;;;;;;;;25.50;84.16;97469.19;5004957;28;19975;-91
2022/08/14 03:41:22;;;;;;;;;;;;;;;25.51;84.03;97470.78;4988683;28;19925;-91
2022/08/14 03:43:49;;;;;;;;;;;;;;;25.53;84.30;97473.91;4990174;28;19984;-90
2022/08/14 03:46:17;;;;;;;;;;;;;;;25.47;84.14;97464.44;4997218;28;19926;-91
2022/08/14 03:48:44;;;;;;;;;;;;;;;25.45;84.73;97463.22;5007206;28;20388;-92
2022/08/14 03:51:12;;;;;;;;;;;;;;;25.43;84.62;97469.06;5010184;28;19929;-90
2022/08/14 03:53:40;;;;;;;;;;;;;;;25.39;85.33;97462.75;5024792;28;20324;-90
2022/08/14 03:56:08;;;;;;;;;;;;;;;25.40;84.68;97464.34;5011458;28;19969;-92
2022/08/14 03:58:38;;;;;;;;;;;;;;;25.41;85.17;97454.97;5008331;28;19926;-91
2022/08/14 04:01:04;;;;;;;;;;;;;;;25.39;85.20;97457.28;5023936;28;19976;-90
2022/08/14 04:03:31;;;;;;;;;;;;;;;25.39;85.14;97453.78;5022575;28;20032;-92
2022/08/14 04:05:57;;;;;;;;;;;;;;;25.26;86.66;97447.75;5022229;28;20002;-90
2022/08/14 04:08:23;;;;;;;;;;;;;;;25.21;86.58;97446.13;5010892;28;20367;-90
2022/08/14 04:10:50;;;;;;;;;;;;;;;25.19;86.94;97437.50;5015715;28;19999;-92
2022/08/14 04:13:17;;;;;;;;;;;;;;;25.21;87.01;97437.13;5026936;28;19967;-90
2022/08/14 04:15:45;;;;;;;;;;;;;;;25.22;86.68;97438.72;5010998;28;19976;-92
2022/08/14 04:18:11;;;;;;;;;;;;;;;25.04;88.22;97430.25;5006891;28;19968;-91
2022/08/14 04:20:39;;;;;;;;;;;;;;;24.71;90.28;97433.66;5005995;28;19987;-90
2022/08/14 04:23:06;;;;;;;;;;;;;;;24.55;90.58;97441.19;5013725;28;19949;-90
2022/08/14 04:25:35;;;;;;;;;;;;;;;24.73;89.98;97443.44;5011436;28;19926;-90
2022/08/14 04:28:02;;;;;;;;;;;;;;;24.93;88.75;97436.72;5006456;28;19934;-90
2022/08/14 04:30:29;;;;;;;;;;;;;;;25.04;88.25;97434.94;5000860;28;19969;-89
2022/08/14 04:32:57;;;;;;;;;;;;;;;25.12;87.60;97436.63;5007046;28;19926;-90
2022/08/14 04:35:24;;;;;;;;;;;;;;;25.15;87.57;97441.34;5005362;28;20513;-91
2022/08/14 04:43:37;;;;;;;;;;;;;;;24.90;89.09;97430.06;5010544;28;19926;-90
2022/08/14 04:46:03;;;;;;;;;;;;;;;24.99;87.55;97433.31;5011468;28;19933;-91
2022/08/14 04:48:31;;;;;;;;;;;;;;;24.96;88.76;97427.81;5010537;28;20432;-90
2022/08/14 04:50:58;;;;;;;;;;;;;;;24.97;86.54;97435.63;5010887;28;19936;-89
2022/08/14 04:53:27;;;;;;;;;;;;;;;24.94;88.82;97430.13;4997033;28;20508;-91
2022/08/14 04:55:54;;;;;;;;;;;;;;;24.58;90.19;97426.81;4999390;28;19926;-92
2022/08/14 04:58:23;;;;;;;;;;;;;;;24.81;88.33;97431.44;5010092;28;19929;-90
2022/08/14 05:00:50;;;;;;;;;;;;;;;24.94;87.77;97432.84;5005918;28;19965;-92
2022/08/14 05:03:19;;;;;;;;;;;;;;;25.06;86.55;97429.91;5007536;28;19926;-91
2022/08/14 05:05:47;;;;;;;;;;;;;;;25.12;86.59;97418.28;5003763;28;19930;-91
2022/08/14 05:08:14;;;;;;;;;;;;;;;25.13;87.13;97428.03;5007617;28;20576;-89
2022/08/14 05:10:42;;;;;;;;;;;;;;;25.19;86.98;97423.84;5011127;28;19926;-91
2022/08/14 05:13:08;;;;;;;;;;;;;;;25.04;87.86;97413.06;5010010;28;19929;-92
2022/08/14 05:15:36;;;;;;;;;;;;;;;24.85;89.40;97418.66;5012068;28;20012;-90
2022/08/14 05:18:03;;;;;;;;;;;;;;;24.88;88.98;97428.88;5004266;28;20685;-90
2022/08/14 05:20:30;;;;;;;;;;;;;;;24.93;88.92;97432.06;5021322;28;19998;-91
2022/08/14 05:22:59;;;;;;;;;;;;;;;24.69;92.48;97429.72;4999089;28;19936;-92
2022/08/14 05:25:25;;;;;;;;;;;;;;;24.75;91.10;97420.06;5009125;28;19932;-91
2022/08/14 05:27:52;;;;;;;;;;;;;;;24.70;91.64;97418.41;5007207;28;19929;-90
2022/08/14 05:30:18;;;;;;;;;;;;;;;24.24;98.53;97421.53;5019174;28;19926;-91
2022/08/14 05:32:45;;;;;;;;;;;;;;;24.30;96.28;97412.69;5008858;28;19929;-91
2022/08/14 05:35:12;;;;;;;;;;;;;;;24.42;95.18;97406.25;5005686;28;20010;-90
2022/08/14 05:37:39;;;;;;;;;;;;;;;24.64;91.92;97417.16;5010476;28;19933;-91
2022/08/14 05:40:09;;;;;;;;;;;;;;;24.85;90.34;97410.47;5009829;28;20426;-89
2022/08/14 05:42:35;;;;;;;;;;;;;;;24.85;90.60;97405.78;5009983;28;19925;-90
2022/08/14 05:45:04;;;;;;;;;;;;;;;24.88;90.61;97402.31;5003047;28;19933;-89
2022/08/14 05:47:31;;;;;;;;;;;;;;;24.60;94.19;97402.66;5012299;28;20009;-90
2022/08/14 05:49:57;;;;;;;;;;;;;;;24.72;93.52;97390.75;5012087;28;19937;-90
2022/08/14 05:52:24;;;;;;;;;;;;;;;24.82;91.47;97387.41;5000417;28;19932;-90
2022/08/14 05:54:50;;;;;;;;;;;;;;;25.09;89.38;97385.44;5009941;28;19975;-90
2022/08/14 05:57:18;;;;;;;;;;;;;;;25.30;87.79;97384.94;4999819;28;20017;-91
2022/08/14 05:59:44;;;;;;;;;;;;;;;25.37;87.36;97391.28;5008768;28;20340;-91
2022/08/14 06:02:11;;;;;;;;;;;;;;;25.54;87.78;97390.72;5004765;28;19925;-92
2022/08/14 06:04:38;;;;;;;;;;;;;;;25.64;88.14;97390.06;5003297;28;19925;-92
2022/08/14 06:07:04;;;;;;;;;;;;;;;25.80;87.79;97381.66;5005345;28;19929;-90
2022/08/14 06:09:31;;;;;;;;;;;;;;;25.98;87.76;97376.34;5002753;28;19926;-92
2022/08/14 06:11:57;;;;;;;;;;;;;;;26.07;86.07;97374.09;5008569;28;20367;-90
2022/08/14 06:14:25;;;;;;;;;;;;;;;26.21;85.67;97377.00;5001722;28;20003;-91
2022/08/14 06:16:52;;;;;;;;;;;;;;;26.19;85.20;97377.38;5006233;28;19926;-93
2022/08/14 06:19:18;;;;;;;;;;;;;;;25.92;87.78;97381.38;5007323;28;20376;-90
2022/08/14 06:21:45;;;;;;;;;;;;;;;25.74;90.80;97378.47;5006932;28;20566;-91
2022/08/14 06:24:11;;;;;;;;;;;;;;;25.50;92.18;97376.22;5007434;28;19925;-93
2022/08/14 06:26:37;;;;;;;;;;;;;;;25.94;89.43;97368.09;5003379;28;19926;-91
2022/08/14 06:29:04;;;;;;;;;;;;;;;26.04;89.60;97381.09;5007403;28;19926;-90
2022/08/14 06:31:32;;;;;;;;;;;;;;;26.28;88.06;97380.56;5006618;28;19925;-90
2022/08/14 06:33:58;;;;;;;;;;;;;;;26.01;90.24;97386.53;5020048;28;20444;-91
2022/08/14 06:36:25;;;;;;;;;;;;;;;25.75;92.47;97382.75;5002679;28;20565;-90
2022/08/14 06:38:52;;;;;;;;;;;;;;;26.14;87.98;97388.63;5006631;28;20020;-90
2022/08/14 06:41:18;;;;;;;;;;;;;;;26.46;87.38;97393.63;5007284;28;19932;-91
2022/08/14 06:43:44;;;;;;;;;;;;;;;26.72;85.15;97382.47;5010090;28;20486;-92
2022/08/14 06:46:11;;;;;;;;;;;;;;;26.96;84.41;97378.34;5010355;28;19926;-92
2022/08/14 06:48:39;;;;;;;;;;;;;;;27.13;82.22;97378.47;5004269;28;19965;-92
2022/08/14 06:51:05;;;;;;;;;;;;;;;27.32;81.28;97374.63;5008796;28;19991;-90
2022/08/14 06:53:32;;;;;;;;;;;;;;;27.44;81.83;97388.03;4993207;28;19949;-90
2022/08/14 06:55:58;;;;;;;;;;;;;;;27.51;81.45;97390.03;5000521;28;19936;-92
2022/08/14 06:58:25;;;;;;;;;;;;;;;27.19;83.41;97387.88;4996315;28;19929;-94
2022/08/14 07:06:20;;;;;;;;;;;;;;;27.10;85.11;97397.63;5004477;28;20016;-93
2022/08/14 07:08:47;;;;;;;;;;;;;;;27.43;83.28;97389.19;5007397;28;19932;-91
2022/08/14 07:11:14;;;;;;;;;;;;;;;27.45;82.13;97400.56;5008233;28;19933;-92
2022/08/14 07:13:40;;;;;;;;;;;;;;;27.00;85.35;97395.59;5006994;28;19929;-90
2022/08/14 07:16:07;;;;;;;;;;;;;;;27.25;84.63;97391.03;5007180;28;19956;-90
2022/08/14 07:18:35;;;;;;;;;;;;;;;27.01;84.30;97399.91;5013460;28;19968;-90
2022/08/14 07:21:03;;;;;;;;;;;;;;;26.98;85.86;97393.25;5016286;28;19929;-90
2022/08/14 07:23:31;;;;;;;;;;;;;;;27.25;84.51;97388.31;5010979;28;20297;-92
2022/08/14 07:25:59;;;;;;;;;;;;;;;27.37;83.01;97393.44;5012653;28;19929;-92
2022/08/14 07:28:26;;;;;;;;;;;;;;;26.50;87.51;97387.00;5013409;28;19964;-89
2022/08/14 07:30:56;;;;;;;;;;;;;;;26.23;89.84;97393.81;5014739;28;19957;-90
2022/08/14 07:33:23;;;;;;;;;;;;;;;25.75;92.73;97399.16;5015189;28;19954;-91
2022/08/14 07:35:49;;;;;;;;;;;;;;;26.31;90.76;97398.19;5013801;28;20055;-91
2022/08/14 07:38:19;;;;;;;;;;;;;;;26.12;89.87;97395.66;5012196;28;19929;-94
2022/08/14 07:40:47;;;;;;;;;;;;;;;25.62;93.07;97395.13;5013483;28;19925;-90
2022/08/14 07:43:13;;;;;;;;;;;;;;;25.71;93.57;97390.16;5009457;28;20035;-90
2022/08/14 07:45:40;;;;;;;;;;;;;;;25.39;94.86;97388.97;5011534;28;20004;-90
2022/08/14 07:48:07;;;;;;;;;;;;;;;25.47;95.05;97381.66;5012806;28;20454;-91
2022/08/14 07:50:33;;;;;;;;;;;;;;;25.35;95.12;97385.38;5016074;28;19965;-91
2022/08/14 07:53:00;;;;;;;;;;;;;;;25.24;95.18;97389.94;5001301;28;19995;-91
2022/08/14 07:55:27;;;;;;;;;;;;;;;25.36;94.69;97376.03;5002072;28;19968;-90
2022/08/14 07:57:55;;;;;;;;;;;;;;;25.58;92.40;97386.09;5006440;28;19933;-91
2022/08/14 08:00:22;;;;;;;;;;;;;;;25.38;93.86;97376.44;5008630;28;19929;-93
2022/08/14 08:02:50;;;;;;;;;;;;;;;25.46;93.54;97378.13;5007431;28;19926;-91
2022/08/14 08:05:17;;;;;;;;;;;;;;;25.42;93.00;97382.75;5006894;28;20513;-94
2022/08/14 08:07:45;;;;;;;;;;;;;;;25.70;91.17;97372.16;5000924;28;19969;-92
2022/08/14 08:12:58;;;;;;;;;;;;;;;26.76;83.88;97373.13;5006200;28;19936;-91
2022/08/14 08:15:25;;;;;;;;;;;;;;;26.20;87.46;97378.94;5007789;28;19929;-93
2022/08/14 08:17:51;;;;;;;;;;;;;;;26.02;88.48;97367.03;5003590;28;19972;-91
2022/08/14 08:20:19;;;;;;;;;;;;;;;25.80;89.00;97364.44;5008218;28;20511;-90
2022/08/14 08:22:46;;;;;;;;;;;;;;;25.85;88.80;97364.88;5002349;28;20012;-90
2022/08/14 08:25:13;;;;;;;;;;;;;;;25.55;90.95;97370.44;5027642;28;19929;-92
2022/08/14 08:27:39;;;;;;;;;;;;;;;25.48;91.06;97373.06;5007726;28;19953;-92
2022/08/14 08:30:09;;;;;;;;;;;;;;;25.51;91.32;97363.34;5005895;28;20016;-93
2022/08/14 08:32:40;;;;;;;;;;;;;;;25.71;91.03;97371.00;5006340;28;19931;-92
2022/08/14 08:35:09;;;;;;;;;;;;;;;25.73;90.36;97365.94;4999007;28;19933;-91
2022/08/14 08:37:36;;;;;;;;;;;;;;;25.75;90.60;97368.28;5005391;28;19925;-92
2022/08/14 08:40:03;;;;;;;;;;;;;;;25.96;89.11;97354.84;5005907;28;19955;-90
2022/08/14 08:42:29;;;;;;;;;;;;;;;26.05;87.75;97362.75;5006794;28;19969;-90
2022/08/14 08:44:56;;;;;;;;;;;;;;;25.94;88.78;97353.63;5008717;28;19935;-91
2022/08/14 08:47:23;;;;;;;;;;;;;;;25.74;88.50;97353.84;5006977;28;20706;-90
2022/08/14 08:49:51;;;;;;;;;;;;;;;25.76;87.87;97346.06;5002918;28;19975;-91
2022/08/14 08:52:17;;;;;;;;;;;;;;;25.80;88.55;97353.50;5001278;28;19929;-92
2022/08/14 08:54:52;;;;;;;;;;;;;;;25.75;88.84;97344.47;5003794;28;20637;-90
2022/08/14 08:57:19;;;;;;;;;;;;;;;25.94;87.21;97346.22;4989135;28;19933;-90
2022/08/14 08:59:45;;;;;;;;;;;;;;;26.51;84.40;97344.00;4998624;28;19925;-90
2022/08/14 09:02:12;;;;;;;;;;;;;;;27.12;81.34;97346.72;4997940;28;19975;-93
2022/08/14 09:04:43;;;;;;;;;;;;;;;27.64;76.11;97350.88;5006331;28;19937;-90
2022/08/14 09:07:09;;;;;;;;;;;;;;;27.13;76.22;97351.06;5007667;28;19929;-90
2022/08/14 09:09:49;;;;;;;;;;;;;;;26.52;80.02;97338.13;5009270;28;19968;-90
2022/08/14 09:12:17;;;;;;;;;;;;;;;26.35;81.45;97338.00;5008069;28;19926;-91
2022/08/14 09:14:43;;;;;;;;;;;;;;;26.02;81.50;97341.59;5008621;28;19965;-90
2022/08/14 09:17:10;;;;;;;;;;;;;;;26.33;81.48;97340.34;4998846;28;19933;-91
2022/08/14 09:19:37;;;;;;;;;;;;;;;26.70;79.41;97332.78;5000466;28;19972;-91
2022/08/14 09:22:05;;;;;;;;;;;;;;;26.38;77.62;97332.56;4994744;28;19932;-90
2022/08/14 09:24:32;;;;;;;;;;;;;;;26.47;78.94;97337.69;5001527;28;19960;-91
2022/08/14 09:26:58;;;;;;;;;;;;;;;27.49;75.05;97326.53;5003461;28;19975;-91
2022/08/14 09:29:25;;;;;;;;;;;;;;;27.29;73.45;97332.31;5002495;28;19988;-90
2022/08/14 09:31:53;;;;;;;;;;;;;;;26.87;76.84;97325.84;5003970;28;19937;-92
2022/08/14 09:34:22;;;;;;;;;;;;;;;27.13;76.64;97328.31;5003752;28;19953;-90
2022/08/14 09:36:57;;;;;;;;;;;;;;;26.92;76.97;97329.03;5004782;28;19980;-93
2022/08/14 09:39:32;;;;;;;;;;;;;;;26.83;77.47;97325.06;5004290;28;20292;-90
2022/08/14 09:42:08;;;;;;;;;;;;;;;26.74;77.81;97323.41;5007467;28;20012;-91
2022/08/14 09:44:42;;;;;;;;;;;;;;;27.00;77.28;97324.34;4991061;28;19930;-89
2022/08/14 09:47:09;;;;;;;;;;;;;;;26.81;78.69;97331.69;5007127;28;19929;-93
2022/08/14 09:49:36;;;;;;;;;;;;;;;26.95;77.91;97322.78;5002146;28;20519;-90
2022/08/14 09:52:04;;;;;;;;;;;;;;;27.15;77.44;97321.28;5006073;28;19926;-92
2022/08/14 09:54:40;;;;;;;;;;;;;;;26.91;77.49;97319.22;5007027;28;19988;-91
2022/08/14 09:57:09;;;;;;;;;;;;;;;26.74;78.89;97317.91;5000626;28;20020;-91
2022/08/14 09:59:44;;;;;;;;;;;;;;;26.83;79.00;97303.13;5007774;28;19929;-91
2022/08/14 10:02:18;;;;;;;;;;;;;;;26.97;78.74;97301.25;5005180;28;19929;-94
2022/08/14 10:04:46;;;;;;;;;;;;;;;29.43;69.25;97288.69;5008540;28;20360;-90
2022/08/14 10:07:13;;;;;;;;;;;;;;;30.19;63.75;97284.25;5007641;28;19933;-90
2022/08/14 10:09:48;;;;;;;;;;;;;;;30.46;62.11;97279.72;5005891;28;20665;-91
2022/08/14 10:12:14;;;;;;;;;;;;;;;30.65;59.93;97281.09;5023801;28;19925;-91
2022/08/14 10:14:41;;;;;;;;;;;;;;;30.78;58.10;97284.91;5005035;28;19926;-90
2022/08/14 10:17:07;;;;;;;;;;;;;;;31.03;56.43;97286.22;5009047;28;19929;-92
2022/08/14 10:19:35;;;;;;;;;;;;;;;31.08;55.07;97284.16;5007723;28;19936;-90
2022/08/14 10:22:02;;;;;;;;;;;;;;;30.88;54.29;97279.28;5006570;28;19995;-90
2022/08/14 10:24:31;;;;;;;;;;;;;;;29.91;57.83;97277.81;5001966;28;19965;-90
2022/08/14 10:27:00;;;;;;;;;;;;;;;29.04;58.88;97270.78;5005904;28;19929;-90
2022/08/14 10:29:31;;;;;;;;;;;;;;;28.35;61.20;97276.81;5008758;28;19936;-92
2022/08/14 10:31:58;;;;;;;;;;;;;;;28.93;60.51;97268.09;5007262;28;19929;-91
2022/08/14 10:34:30;;;;;;;;;;;;;;;28.53;61.05;97272.13;5007396;28;19933;-91
2022/08/14 10:37:02;;;;;;;;;;;;;;;28.41;62.05;97261.50;4998287;28;19976;-92
2022/08/14 10:39:29;;;;;;;;;;;;;;;28.16;62.73;97258.03;5016029;28;19926;-90
2022/08/14 10:42:10;;;;;;;;;;;;;;;28.51;62.87;97255.22;4997591;28;20471;-90
2022/08/14 10:44:38;;;;;;;;;;;;;;;28.37;62.64;97256.06;5019706;28;19929;-90
2022/08/14 10:47:06;;;;;;;;;;;;;;;28.75;61.60;97248.91;5007118;28;19925;-92
2022/08/14 10:49:33;;;;;;;;;;;;;;;28.65;61.88;97249.75;5013815;28;19932;-89
2022/08/14 10:52:04;;;;;;;;;;;;;;;28.45;61.22;97251.31;5004538;28;19929;-90
2022/08/14 10:54:32;;;;;;;;;;;;;;;28.27;62.26;97253.31;5005629;28;19933;-91
2022/08/14 10:56:58;;;;;;;;;;;;;;;28.13;62.83;97247.84;5008954;28;19929;-90
2022/08/14 10:59:26;;;;;;;;;;;;;;;28.15;63.26;97248.22;5006225;28;20025;-90
2022/08/14 11:01:53;;;;;;;;;;;;;;;28.21;62.89;97244.69;5002555;28;19926;-92
2022/08/14 11:04:20;;;;;;;;;;;;;;;28.48;62.96;97231.28;5000284;28;19965;-92
2022/08/14 11:06:52;;;;;;;;;;;;;;;28.60;61.64;97230.88;5005953;28;19952;-90
2022/08/14 11:09:18;;;;;;;;;;;;;;;28.46;62.30;97230.13;5006217;28;19972;-89
2022/08/14 11:11:44;;;;;;;;;;;;;;;28.47;62.86;97228.97;5006740;28;19925;-90
2022/08/14 11:14:11;;;;;;;;;;;;;;;28.47;63.09;97227.00;5008531;28;20012;-91
2022/08/14 11:16:40;;;;;;;;;;;;;;;28.50;62.82;97228.97;5005823;28;19969;-91
2022/08/14 11:19:07;;;;;;;;;;;;;;;28.82;63.11;97229.66;5010544;28;19929;-90
2022/08/14 11:21:38;;;;;;;;;;;;;;;28.76;62.43;97216.72;5002564;28;19932;-92
2022/08/14 11:24:07;;;;;;;;;;;;;;;28.75;61.96;97217.91;5020297;28;19933;-91
2022/08/14 11:26:36;;;;;;;;;;;;;;;28.59;62.06;97210.09;5000519;28;20036;-93
2022/08/14 11:29:04;;;;;;;;;;;;;;;28.69;62.63;97194.78;5005816;28;19926;-91
2022/08/14 11:31:32;;;;;;;;;;;;;;;28.70;62.02;97202.59;5007628;28;20426;-91
2022/08/14 11:34:00;;;;;;;;;;;;;;;28.84;61.29;97210.03;5018845;28;19955;-91
2022/08/14 11:36:28;;;;;;;;;;;;;;;29.07;59.57;97204.00;5007264;28;19964;-90
2022/08/14 11:38:54;;;;;;;;;;;;;;;29.17;60.44;97206.72;5003305;28;19988;-92
2022/08/14 11:41:20;;;;;;;;;;;;;;;29.39;59.98;97208.19;5007157;28;20376;-91
2022/08/14 11:43:48;;;;;;;;;;;;;;;29.72;58.97;97205.97;5002227;28;20004;-91
2022/08/14 11:46:15;;;;;;;;;;;;;;;29.12;59.06;97209.09;5004862;28;19969;-89
2022/08/14 11:48:45;;;;;;;;;;;;;;;29.01;59.26;97200.09;5013965;28;20506;-90
2022/08/14 11:51:19;;;;;;;;;;;;;;;29.17;59.65;97194.91;5005850;28;19983;-90
2022/08/14 11:53:50;;;;;;;;;;;;;;;29.31;58.77;97189.34;5005148;28;20341;-91
2022/08/14 11:56:17;;;;;;;;;;;;;;;29.48;57.77;97182.97;4996489;28;19926;-92
2022/08/14 11:58:49;;;;;;;;;;;;;;;29.62;57.43;97190.34;5006422;28;19933;-92
2022/08/14 12:01:16;;;;;;;;;;;;;;;29.67;57.01;97196.19;5004173;28;20325;-90
2022/08/14 12:03:44;;;;;;;;;;;;;;;29.38;55.87;97189.31;5008902;28;19948;-92
2022/08/14 12:06:12;;;;;;;;;;;;;;;29.32;55.44;97177.97;5024891;28;19992;-90
2022/08/14 12:08:41;;;;;;;;;;;;;;;29.46;56.51;97163.34;5009705;28;20242;-89
2022/08/14 12:11:09;;;;;;;;;;;;;;;29.61;55.71;97158.50;5009176;28;20432;-89
2022/08/14 12:13:35;;;;;;;;;;;;;;;29.48;56.46;97166.44;5009460;28;19979;-90
2022/08/14 12:16:03;;;;;;;;;;;;;;;29.31;55.43;97170.09;5009555;28;20019;-90
2022/08/14 12:18:31;;;;;;;;;;;;;;;29.25;55.65;97157.97;5009356;28;20016;-92
2022/08/14 12:20:58;;;;;;;;;;;;;;;29.31;55.92;97161.84;5009010;28;20424;-92
2022/08/14 12:23:25;;;;;;;;;;;;;;;29.49;55.40;97156.22;5006619;28;20464;-91
2022/08/14 12:26:03;;;;;;;;;;;;;;;29.30;55.06;97152.06;5010514;28;20428;-89
2022/08/14 12:28:30;;;;;;;;;;;;;;;29.21;55.95;97148.94;5013940;28;19929;-90
2022/08/14 12:30:57;;;;;;;;;;;;;;;29.51;55.27;97138.13;5009565;28;19960;-92
2022/08/14 12:33:25;;;;;;;;;;;;;;;29.61;54.70;97147.47;5009441;28;19969;-90
2022/08/14 12:35:52;;;;;;;;;;;;;;;29.54;54.35;97139.28;5009680;28;19936;-91
2022/08/14 12:38:19;;;;;;;;;;;;;;;29.67;55.24;97127.38;5007094;28;19984;-91
2022/08/14 12:40:47;;;;;;;;;;;;;;;29.86;53.80;97131.56;5007298;28;19937;-90
2022/08/14 12:43:18;;;;;;;;;;;;;;;29.60;53.66;97130.19;5008363;28;20408;-92
2022/08/14 12:45:48;;;;;;;;;;;;;;;29.50;53.62;97133.00;5006568;28;20037;-91
2022/08/14 12:48:15;;;;;;;;;;;;;;;29.52;54.09;97123.19;5013783;28;20375;-91
2022/08/14 12:50:43;;;;;;;;;;;;;;;29.77;53.50;97118.22;5006183;28;20521;-90
2022/08/14 12:53:10;;;;;;;;;;;;;;;29.77;53.51;97115.47;4992631;28;19995;-89
2022/08/14 12:55:39;;;;;;;;;;;;;;;29.97;52.98;97112.97;5002522;28;20491;-91
2022/08/14 12:58:07;;;;;;;;;;;;;;;30.22;50.91;97105.22;4998753;28;20015;-90
2022/08/14 13:00:37;;;;;;;;;;;;;;;30.23;51.85;97106.00;5013839;28;19925;-94
2022/08/14 13:03:04;;;;;;;;;;;;;;;30.14;50.75;97094.69;5008414;28;19926;-89
2022/08/14 13:05:32;;;;;;;;;;;;;;;30.09;50.41;97095.13;5009787;28;19932;-88
2022/08/14 13:07:59;;;;;;;;;;;;;;;29.99;50.34;97105.06;5005079;28;19975;-91
2022/08/14 13:10:25;;;;;;;;;;;;;;;29.96;50.21;97098.41;5008160;28;19935;-91